Aplicació Alertes

Dades de l'estació automàtica Lleida - la Bordeta

?
?
Resum diari 20:30 TU
Dades diàries de l'estació meteorològica
Temperatura mitjana 4.5 °C
Temperatura màxima 14.4 °C 15:46 TU
Temperatura mínima -2.1 °C 6:00 TU
Humitat relativa mitjana 82%
Precipitació acumulada 0.0 mm
Ratxa màxima del vent (2 m) 13.0 km/h - 279º 11:59 TU

El tram horari està expressat en Temps Universal (TU). Cal sumar una hora en horari d'hivern i dues en horari d'estiu per passar a l'hora oficial.

Lleida - la Bordeta

Metadades estació meteorol´gica
Municipi Lleida
Comarca Segrià
Altitud 165 m
Data alta 24.07.2013
Estat actual Operativa
Dades de període
Període
TU
TM
°C
TX
°C
TN
°C
HRM
%
PPT
mm
VVM (2 m)
km/h
DVM (2 m)
graus
VVX (2 m)
km/h
00:00 - 00:30 0.6 1.0 0.2 93 0.0 0.0 93 2.5
00:30 - 01:00 -0.1 0.1 -0.3 94 0.0 0.0 130 2.5
01:00 - 01:30 -0.2 0.2 -0.5 95 0.0 0.0 35 2.5
01:30 - 02:00 0.4 0.5 -0.1 95 0.0 0.0 56 2.5
02:00 - 02:30 -0.6 -0.2 -0.9 94 0.0 0.4 87 2.2
02:30 - 03:00 -0.9 -0.4 -1.2 95 0.0 0.4 83 2.9
03:00 - 03:30 -1.0 -0.4 -1.3 95 0.0 0.0 78 1.4
03:30 - 04:00 -1.3 -1.0 -1.5 96 0.0 0.0 0 0.0
04:00 - 04:30 -1.6 -1.4 -1.8 96 0.0 0.0 0 0.0
04:30 - 05:00 -1.6 -1.2 -1.8 96 0.0 0.0 72 1.8
05:00 - 05:30 -1.7 -1.3 -1.9 96 0.0 0.4 89 2.9
05:30 - 06:00 -1.7 -1.3 -2.1 96 0.0 0.0 110 2.2
06:00 - 06:30 -1.5 -1.1 -2.1 97 0.0 1.1 41 3.6
06:30 - 07:00 -1.4 -1.3 -1.6 97 0.0 0.7 58 3.2
07:00 - 07:30 -1.8 -1.6 -2.0 97 0.0 0.0 31 0.7
07:30 - 08:00 -1.5 -0.9 -2.0 97 0.0 0.7 64 2.9
08:00 - 08:30 -0.1 1.0 -0.8 97 0.0 0.4 28 4.0
08:30 - 09:00 1.4 1.8 0.9 95 0.0 1.8 8 6.5
09:00 - 09:30 2.8 3.8 1.8 90 0.0 2.2 10 6.5
09:30 - 10:00 5.0 5.8 3.9 80 0.0 2.2 25 6.5
10:00 - 10:30 6.5 6.9 5.9 75 0.0 1.8 354 4.7
10:30 - 11:00 7.9 8.7 6.6 71 0.0 1.8 170 9.0
11:00 - 11:30 8.6 9.2 8.0 70 0.0 4.0 222 9.7
11:30 - 12:00 9.3 10.3 8.8 68 0.0 5.0 267 13.0
12:00 - 12:30 10.4 10.9 9.6 64 0.0 4.7 287 12.2
12:30 - 13:00 11.3 11.7 11.0 61 0.0 3.6 268 11.2
13:00 - 13:30 12.1 12.5 11.5 59 0.0 4.3 251 10.1
13:30 - 14:00 12.7 13.6 12.1 56 0.0 3.6 246 10.1
14:00 - 14:30 13.4 13.9 12.9 54 0.0 2.9 240 9.4
14:30 - 15:00 13.5 13.8 13.2 54 0.0 2.2 196 6.5
15:00 - 15:30 13.6 13.9 13.3 53 0.0 1.4 279 4.7
15:30 - 16:00 13.7 14.4 13.0 53 0.0 0.4 278 2.9
16:00 - 16:30 11.3 12.8 9.8 62 0.0 0.0 0 0.0
16:30 - 17:00 8.8 9.7 7.9 70 0.0 0.0 85 1.4
17:00 - 17:30 7.2 7.8 6.8 75 0.0 0.4 56 4.3
17:30 - 18:00 6.8 7.2 6.3 78 0.0 0.0 83 2.5
18:00 - 18:30 6.2 7.0 5.6 80 0.0 0.7 4 2.9
18:30 - 19:00 5.5 5.7 5.2 82 0.0 0.7 56 3.2
19:00 - 19:30 5.0 5.3 4.6 84 0.0 0.7 66 2.9
19:30 - 20:00 4.3 4.8 4.1 87 0.0 0.4 74 2.2
20:00 - 20:30 4.1 4.2 3.8 88 0.0 0.7 31 4.7
20:30 - 21:00 3.8 3.9 3.6 89 0.0 1.1 43 3.6
21:00 - 21:30 (s/d) (s/d) (s/d) (s/d) (s/d) (s/d) (s/d) (s/d)

Les dades en taronja només han passat un control de qualitat automàtic. Resta pendent la seva validació definitiva.